createdAt,value
2022-12-23T19:44:29.182Z,12.50
2022-12-23T19:46:56.064Z,12.51
2022-12-23T19:49:22.928Z,12.53
2022-12-23T19:51:50.767Z,12.55
2022-12-23T19:54:19.062Z,12.51
2022-12-23T19:56:46.508Z,12.60
2022-12-23T19:59:13.331Z,12.61
2022-12-23T20:01:40.188Z,12.65
2022-12-23T20:04:06.975Z,12.67
2022-12-23T20:06:38.212Z,12.68
2022-12-23T20:09:10.743Z,12.75
2022-12-23T20:11:42.575Z,12.67
2022-12-23T20:14:10.222Z,12.74
2022-12-23T20:16:38.802Z,12.64
2022-12-23T20:19:06.634Z,12.74
2022-12-23T20:21:35.503Z,12.74
2022-12-23T20:24:02.339Z,12.75
2022-12-23T20:26:29.375Z,12.75
2022-12-23T20:28:57.431Z,12.67
2022-12-23T20:31:31.023Z,12.72
2022-12-23T20:33:58.563Z,12.74
2022-12-23T20:36:29.483Z,12.76
2022-12-23T20:38:56.847Z,12.74
2022-12-23T20:41:27.385Z,12.75
2022-12-23T20:44:32.452Z,12.75
2022-12-23T20:46:41.637Z,12.74
2022-12-23T20:49:08.477Z,12.73
2022-12-23T20:51:35.340Z,12.73
2022-12-23T20:54:02.086Z,12.74
2022-12-23T20:56:30.316Z,12.72
2022-12-23T20:58:59.050Z,12.72
2022-12-23T21:01:30.670Z,12.72
2022-12-23T21:04:00.714Z,12.73
2022-12-23T21:06:30.345Z,12.71
2022-12-23T21:08:59.378Z,12.65
2022-12-23T21:11:31.313Z,12.65
2022-12-23T21:14:06.171Z,12.51
2022-12-23T21:16:35.704Z,12.63
2022-12-23T21:19:03.407Z,12.60
2022-12-23T21:21:31.712Z,12.57
2022-12-23T21:24:04.004Z,12.55
2022-12-23T21:26:32.446Z,12.40
2022-12-23T21:29:01.396Z,12.40
2022-12-23T21:31:29.991Z,12.50
2022-12-23T21:33:57.943Z,12.48
2022-12-23T21:36:31.121Z,12.47
2022-12-23T21:38:58.759Z,12.40
2022-12-23T21:41:29.383Z,12.42
2022-12-23T21:43:58.180Z,12.37
2022-12-23T21:46:25.924Z,12.20
2022-12-23T21:48:53.215Z,12.38
2022-12-23T21:51:31.761Z,12.39
2022-12-23T21:54:03.673Z,12.35
2022-12-23T21:56:31.497Z,12.29
2022-12-23T21:59:05.229Z,12.31
2022-12-23T22:01:32.929Z,12.28
2022-12-23T22:04:00.117Z,12.24
2022-12-23T22:06:31.713Z,12.24
2022-12-23T22:08:58.581Z,12.21
2022-12-23T22:11:31.366Z,12.22
2022-12-23T22:14:01.390Z,12.14
2022-12-23T22:16:30.569Z,12.19
2022-12-23T22:18:59.303Z,12.18
2022-12-23T22:21:29.192Z,12.21
2022-12-23T22:23:56.293Z,12.18
2022-12-23T22:26:27.174Z,12.17
2022-12-23T22:29:00.354Z,12.17
2022-12-23T22:31:45.965Z,12.18
2022-12-23T22:34:18.647Z,12.12
2022-12-23T22:36:45.957Z,12.17
2022-12-23T22:39:21.018Z,12.16
2022-12-23T22:41:50.268Z,12.16
2022-12-23T22:44:17.402Z,12.15
2022-12-23T22:46:44.353Z,12.16
2022-12-23T22:49:13.627Z,12.15
2022-12-23T22:51:41.701Z,12.13
2022-12-23T22:54:08.941Z,12.15
2022-12-23T22:56:36.144Z,12.15
2022-12-23T22:59:03.157Z,12.19
2022-12-23T23:01:33.421Z,12.16
2022-12-23T23:04:02.559Z,12.15
2022-12-23T23:06:34.263Z,12.14
2022-12-23T23:09:01.522Z,12.13
2022-12-23T23:11:29.327Z,12.07
2022-12-23T23:13:56.750Z,12.07
2022-12-23T23:16:24.800Z,12.12
2022-12-23T23:18:53.009Z,12.09
2022-12-23T23:21:19.854Z,12.07
2022-12-23T23:23:46.776Z,12.06
2022-12-23T23:26:13.990Z,12.05
2022-12-23T23:28:41.224Z,12.02
2022-12-23T23:31:41.448Z,11.98
2022-12-23T23:33:57.762Z,11.94
2022-12-23T23:36:24.790Z,11.90
2022-12-23T23:38:51.668Z,11.88
2022-12-23T23:41:22.966Z,11.90
2022-12-23T23:43:51.181Z,11.87
2022-12-23T23:46:18.085Z,11.79
2022-12-23T23:48:44.932Z,11.84
2022-12-23T23:51:12.642Z,11.83
2022-12-23T23:53:40.182Z,11.81
2022-12-23T23:56:08.348Z,11.77
2022-12-23T23:58:36.653Z,11.73
